Time,TemperatureF,DewpointF,PressureIn,WindDirection,WindDirectionDegrees,WindSpeedMPH,WindSpeedGustMPH,Humidity,HourlyPrecipIn,Conditions,Clouds,dailyrainin,SoftwareType,DateUTC
2013-01-11 00:03:00,25.5,23.5,30.45,West,270,0.0,-999.0,92,-99.99,,,0.00,Acu-Link.com,2013-01-11 05:03:00,
2013-01-11 00:18:00,26.2,23.9,30.45,SW,225,1.7,-999.0,91,-99.99,,,0.00,Acu-Link.com,2013-01-11 05:18:00,
2013-01-11 00:33:00,25.5,23.8,30.44,SW,225,0.0,-999.0,93,-99.99,,,0.00,Acu-Link.com,2013-01-11 05:33:00,
2013-01-11 00:48:00,25.7,24.0,30.44,West,270,0.0,-999.0,93,-99.99,,,0.00,Acu-Link.com,2013-01-11 05:48:00,
2013-01-11 01:04:00,25.3,23.0,30.44,West,270,0.0,-999.0,91,-99.99,,,0.00,Acu-Link.com,2013-01-11 06:04:00,
2013-01-11 01:19:00,24.3,22.8,30.43,NNE,22,0.0,-999.0,94,-99.99,,,0.00,Acu-Link.com,2013-01-11 06:19:00,
2013-01-11 01:34:00,25.3,23.3,30.43,NW,315,0.0,-999.0,92,-99.99,,,0.00,Acu-Link.com,2013-01-11 06:34:00,
2013-01-11 01:49:00,23.7,22.5,30.43,NW,315,0.0,-999.0,95,-99.99,,,0.00,Acu-Link.com,2013-01-11 06:49:00,
2013-01-11 02:05:00,23.7,22.7,30.44,NW,315,0.0,-999.0,96,-99.99,,,0.00,Acu-Link.com,2013-01-11 07:05:00,
2013-01-11 02:20:00,22.5,21.3,30.43,NW,315,0.0,-999.0,95,-99.99,,,0.00,Acu-Link.com,2013-01-11 07:20:00,
2013-01-11 02:35:00,22.5,21.8,30.43,NW,315,0.0,-999.0,97,-99.99,,,0.00,Acu-Link.com,2013-01-11 07:35:00,
2013-01-11 02:50:00,22.3,21.6,30.43,NW,315,0.0,-999.0,97,-99.99,,,0.00,Acu-Link.com,2013-01-11 07:50:00,
2013-01-11 03:05:00,22.3,21.8,30.43,NW,315,0.0,-999.0,98,-99.99,,,0.00,Acu-Link.com,2013-01-11 08:05:00,
2013-01-11 03:20:00,23.2,23.0,30.42,NW,315,0.0,-999.0,99,-99.99,,,0.00,Acu-Link.com,2013-01-11 08:20:00,
2013-01-11 03:36:00,22.5,22.3,30.41,NW,315,0.0,-999.0,99,-99.99,,,0.00,Acu-Link.com,2013-01-11 08:36:00,
2013-01-11 03:51:00,22.1,21.4,30.41,NW,315,0.0,-999.0,97,-99.99,,,0.00,Acu-Link.com,2013-01-11 08:51:00,
2013-01-11 04:11:00,21.9,21.2,30.41,NW,315,0.0,-999.0,97,-99.99,,,0.00,Acu-Link.com,2013-01-11 09:11:00,
2013-01-11 04:26:00,21.7,21.2,30.41,NW,315,0.0,-999.0,98,-99.99,,,0.00,Acu-Link.com,2013-01-11 09:26:00,
2013-01-11 04:41:00,22.3,22.1,30.40,NW,315,0.0,-999.0,99,-99.99,,,0.00,Acu-Link.com,2013-01-11 09:41:00,
2013-01-11 04:56:00,21.6,21.4,30.40,NW,315,0.0,-999.0,99,-99.99,,,0.00,Acu-Link.com,2013-01-11 09:56:00,
2013-01-11 05:11:00,22.3,22.1,30.40,WNW,292,2.2,-999.0,99,-99.99,,,0.00,Acu-Link.com,2013-01-11 10:11:00,
2013-01-11 05:27:00,22.1,21.9,30.41,WNW,292,1.1,-999.0,99,-99.99,,,0.00,Acu-Link.com,2013-01-11 10:27:00,
2013-01-11 05:42:00,23.0,22.8,30.40,WNW,292,0.0,-999.0,99,-99.99,,,0.00,Acu-Link.com,2013-01-11 10:42:00,
2013-01-11 05:57:00,22.3,22.1,30.41,WNW,292,0.0,-999.0,99,-99.99,,,0.00,Acu-Link.com,2013-01-11 10:57:00,
2013-01-11 06:12:00,23.2,23.0,30.42,WNW,292,0.0,-999.0,99,-99.99,,,0.00,Acu-Link.com,2013-01-11 11:12:00,
2013-01-11 06:27:00,22.8,22.6,30.42,WNW,292,0.0,-999.0,99,-99.99,,,0.00,Acu-Link.com,2013-01-11 11:27:00,
2013-01-11 06:42:00,22.8,22.6,30.41,WNW,292,0.0,-999.0,99,-99.99,,,0.00,Acu-Link.com,2013-01-11 11:42:00,
2013-01-11 06:57:00,23.7,23.5,30.43,WNW,292,0.0,-999.0,99,-99.99,,,0.00,Acu-Link.com,2013-01-11 11:57:00,
2013-01-11 07:12:00,23.4,23.2,30.43,WNW,292,0.0,-999.0,99,-99.99,,,0.00,Acu-Link.com,2013-01-11 12:12:00,
2013-01-11 07:28:00,23.7,23.5,30.43,WNW,292,0.0,-999.0,99,-99.99,,,0.00,Acu-Link.com,2013-01-11 12:28:00,
2013-01-11 07:43:00,24.1,23.9,30.43,WNW,292,0.0,-999.0,99,-99.99,,,0.00,Acu-Link.com,2013-01-11 12:43:00,
2013-01-11 07:58:00,24.6,24.4,30.43,WNW,292,0.0,-999.0,99,-99.99,,,0.00,Acu-Link.com,2013-01-11 12:58:00,
2013-01-11 08:14:00,25.5,25.3,30.44,WNW,292,0.0,-999.0,99,-99.99,,,0.00,Acu-Link.com,2013-01-11 13:14:00,
2013-01-11 08:29:00,27.3,26.8,30.43,WNW,292,0.0,-999.0,98,-99.99,,,0.00,Acu-Link.com,2013-01-11 13:29:00,
2013-01-11 08:44:00,29.1,26.8,30.43,WNW,292,0.0,-999.0,91,-99.99,,,0.00,Acu-Link.com,2013-01-11 13:44:00,
2013-01-11 08:59:00,30.6,26.1,30.43,South,180,0.0,-999.0,83,-99.99,,,0.00,Acu-Link.com,2013-01-11 13:59:00,
2013-01-11 09:14:00,32.4,26.3,30.42,WSW,247,2.2,-999.0,78,-99.99,,,0.00,Acu-Link.com,2013-01-11 14:14:00,
2013-01-11 09:29:00,33.6,27.2,30.42,WSW,247,0.0,-999.0,77,-99.99,,,0.00,Acu-Link.com,2013-01-11 14:29:00,
2013-01-11 09:44:00,34.5,26.1,30.42,SW,225,2.2,-999.0,71,-99.99,,,0.00,Acu-Link.com,2013-01-11 14:44:00,
2013-01-11 09:59:00,34.3,26.2,30.41,NNW,337,1.1,-999.0,72,-99.99,,,0.00,Acu-Link.com,2013-01-11 14:59:00,
2013-01-11 10:15:00,34.9,26.1,30.41,West,270,1.7,-999.0,70,-99.99,,,0.00,Acu-Link.com,2013-01-11 15:15:00,
2013-01-11 10:30:00,37.4,27.1,30.39,NNE,22,1.7,-999.0,66,-99.99,,,0.00,Acu-Link.com,2013-01-11 15:30:00,
2013-01-11 10:45:00,36.9,26.6,30.38,NE,45,2.2,-999.0,66,-99.99,,,0.00,Acu-Link.com,2013-01-11 15:45:00,
2013-01-11 11:00:00,37.6,26.9,30.36,South,180,2.7,-999.0,65,-99.99,,,0.00,Acu-Link.com,2013-01-11 16:00:00,
2013-01-11 11:15:00,40.1,27.7,30.35,NE,45,2.7,-999.0,61,-99.99,,,0.00,Acu-Link.com,2013-01-11 16:15:00,
2013-01-11 11:30:00,39.9,28.3,30.34,NE,45,1.1,-999.0,63,-99.99,,,0.00,Acu-Link.com,2013-01-11 16:30:00,
2013-01-11 11:45:00,39.2,28.1,30.34,South,180,1.7,-999.0,64,-99.99,,,0.00,Acu-Link.com,2013-01-11 16:45:00,
2013-01-11 12:00:00,39.2,28.1,30.33,SSW,202,0.0,-999.0,64,-99.99,,,0.00,Acu-Link.com,2013-01-11 17:00:00,
2013-01-11 12:15:00,37.9,27.9,30.32,SSW,202,2.2,-999.0,67,-99.99,,,0.00,Acu-Link.com,2013-01-11 17:15:00,
2013-01-11 12:30:00,39.0,28.6,30.31,SW,225,2.2,-999.0,66,-99.99,,,0.00,Acu-Link.com,2013-01-11 17:30:00,
2013-01-11 12:46:00,39.0,28.6,30.30,SW,225,2.2,-999.0,66,-99.99,,,0.00,Acu-Link.com,2013-01-11 17:46:00,
2013-01-11 13:01:00,39.9,29.1,30.29,SSW,202,1.7,-999.0,65,-99.99,,,0.00,Acu-Link.com,2013-01-11 18:01:00,
2013-01-11 13:16:00,39.2,28.4,30.30,WSW,247,0.0,-999.0,65,-99.99,,,0.00,Acu-Link.com,2013-01-11 18:16:00,
2013-01-11 13:31:00,39.0,29.0,30.29,WSW,247,0.0,-999.0,67,-99.99,,,0.00,Acu-Link.com,2013-01-11 18:31:00,
2013-01-11 13:46:00,38.7,28.7,30.29,WSW,247,1.7,-999.0,67,-99.99,,,0.00,Acu-Link.com,2013-01-11 18:46:00,
2013-01-11 14:01:00,38.7,28.7,30.29,WSW,247,0.0,-999.0,67,-99.99,,,0.00,Acu-Link.com,2013-01-11 19:01:00,
2013-01-11 14:16:00,38.5,28.5,30.28,WSW,247,0.0,-999.0,67,-99.99,,,0.00,Acu-Link.com,2013-01-11 19:16:00,
2013-01-11 14:31:00,38.5,28.9,30.27,North,0,3.2,-999.0,68,-99.99,,,0.00,Acu-Link.com,2013-01-11 19:31:00,
2013-01-11 14:46:00,38.5,28.5,30.27,WSW,247,0.0,-999.0,67,-99.99,,,0.00,Acu-Link.com,2013-01-11 19:46:00,
2013-01-11 15:02:00,38.7,29.1,30.25,NE,45,0.0,-999.0,68,-99.99,,,0.00,Acu-Link.com,2013-01-11 20:02:00,
2013-01-11 15:17:00,37.9,29.4,30.25,NE,45,0.0,-999.0,71,-99.99,,,0.00,Acu-Link.com,2013-01-11 20:17:00,
2013-01-11 15:32:00,37.9,29.0,30.24,NE,45,0.0,-999.0,70,-99.99,,,0.00,Acu-Link.com,2013-01-11 20:32:00,
2013-01-11 15:47:00,37.8,29.6,30.24,NE,45,0.0,-999.0,72,-99.99,,,0.00,Acu-Link.com,2013-01-11 20:47:00,
2013-01-11 16:02:00,37.2,29.7,30.23,WSW,247,0.0,-999.0,74,-99.99,,,0.00,Acu-Link.com,2013-01-11 21:02:00,
2013-01-11 16:17:00,36.7,29.5,30.23,WSW,247,0.0,-999.0,75,-99.99,,,0.00,Acu-Link.com,2013-01-11 21:17:00,
2013-01-11 16:32:00,36.3,29.5,30.23,WSW,247,0.0,-999.0,76,-99.99,,,0.00,Acu-Link.com,2013-01-11 21:32:00,
2013-01-11 16:47:00,36.0,29.8,30.22,WSW,247,0.0,-999.0,78,-99.99,,,0.00,Acu-Link.com,2013-01-11 21:47:00,
2013-01-11 17:02:00,35.8,30.6,30.21,WSW,247,0.0,-999.0,81,-99.99,,,0.00,Acu-Link.com,2013-01-11 22:02:00,
2013-01-11 17:18:00,35.2,31.2,30.21,WSW,247,0.0,-999.0,85,-99.99,,,0.00,Acu-Link.com,2013-01-11 22:18:00,
2013-01-11 17:33:00,34.7,32.1,30.21,WSW,247,0.0,-999.0,90,-99.99,,,0.00,Acu-Link.com,2013-01-11 22:33:00,
2013-01-11 17:48:00,34.7,32.6,30.21,WSW,247,0.0,-999.0,92,-99.99,,,0.00,Acu-Link.com,2013-01-11 22:48:00,
2013-01-11 18:03:00,34.3,32.8,30.20,West,270,0.0,-999.0,94,-99.99,,,0.00,Acu-Link.com,2013-01-11 23:03:00,
2013-01-11 18:18:00,34.2,32.9,30.20,West,270,0.0,-999.0,95,-99.99,,,0.00,Acu-Link.com,2013-01-11 23:18:00,
2013-01-11 18:33:00,34.2,33.2,30.19,West,270,0.0,-999.0,96,-99.99,,,0.00,Acu-Link.com,2013-01-11 23:33:00,
2013-01-11 18:48:00,34.2,33.4,30.19,West,270,0.0,-999.0,97,-99.99,,,0.00,Acu-Link.com,2013-01-11 23:48:00,
2013-01-11 19:03:00,34.2,33.7,30.17,West,270,0.0,-999.0,98,-99.99,,,0.00,Acu-Link.com,2013-01-12 00:03:00,
2013-01-11 19:18:00,34.3,34.0,30.18,West,270,0.0,-999.0,99,-99.99,,,0.01,Acu-Link.com,2013-01-12 00:18:00,
2013-01-11 19:34:00,34.3,34.0,30.17,NNE,22,0.0,-999.0,99,-99.99,,,0.01,Acu-Link.com,2013-01-12 00:34:00,
2013-01-11 19:49:00,34.2,33.9,30.16,NNE,22,0.0,-999.0,99,-99.99,,,0.02,Acu-Link.com,2013-01-12 00:49:00,
2013-01-11 20:04:00,34.2,33.9,30.16,NNE,22,0.0,-999.0,99,-99.99,,,0.03,Acu-Link.com,2013-01-12 01:04:00,
2013-01-11 20:19:00,34.2,33.9,30.17,NNE,22,0.0,-999.0,99,-99.99,,,0.06,Acu-Link.com,2013-01-12 01:19:00,
2013-01-11 20:34:00,34.2,33.9,30.16,NNE,22,1.1,-999.0,99,-99.99,,,0.06,Acu-Link.com,2013-01-12 01:34:00,
2013-01-11 20:49:00,34.2,33.9,30.15,NNE,22,0.0,-999.0,99,-99.99,,,0.07,Acu-Link.com,2013-01-12 01:49:00,
2013-01-11 21:04:00,34.3,34.0,30.14,NNE,22,0.0,-999.0,99,-99.99,,,0.07,Acu-Link.com,2013-01-12 02:04:00,
2013-01-11 21:19:00,34.5,34.2,30.14,NW,315,0.0,-999.0,99,-99.99,,,0.10,Acu-Link.com,2013-01-12 02:19:00,
2013-01-11 21:34:00,34.5,34.2,30.14,NNW,337,0.0,-999.0,99,-99.99,,,0.10,Acu-Link.com,2013-01-12 02:34:00,
2013-01-11 21:50:00,34.9,34.6,30.14,SSW,202,0.0,-999.0,99,-99.99,,,0.11,Acu-Link.com,2013-01-12 02:50:00,
2013-01-11 22:05:00,34.9,34.6,30.14,East,90,0.0,-999.0,99,-99.99,,,0.12,Acu-Link.com,2013-01-12 03:05:00,
2013-01-11 22:20:00,35.4,35.1,30.12,NE,45,0.0,-999.0,99,-99.99,,,0.12,Acu-Link.com,2013-01-12 03:20:00,
2013-01-11 22:35:00,35.6,35.3,30.12,SE,135,2.2,-999.0,99,-99.99,,,0.13,Acu-Link.com,2013-01-12 03:35:00,
2013-01-11 22:50:00,36.0,35.7,30.12,East,90,0.0,-999.0,99,-99.99,,,0.14,Acu-Link.com,2013-01-12 03:50:00,
2013-01-11 23:05:00,36.0,35.7,30.13,NNE,22,0.0,-999.0,99,-99.99,,,0.14,Acu-Link.com,2013-01-12 04:05:00,
2013-01-11 23:20:00,36.0,35.7,30.14,NNE,22,0.0,-999.0,99,-99.99,,,0.14,Acu-Link.com,2013-01-12 04:20:00,
2013-01-11 23:35:00,36.0,35.7,30.14,WNW,292,0.0,-999.0,99,-99.99,,,0.14,Acu-Link.com,2013-01-12 04:35:00,
2013-01-11 23:50:00,36.0,35.7,30.14,WNW,292,0.0,-999.0,99,-99.99,,,0.14,Acu-Link.com,2013-01-12 04:50:00,